SKLT/LET METAR and TAF weather

Enter ICAO airport designator
Station Type Date Time Source
SKLT METAR 2020/04/04 11:00 UTC NOAA

SKLT 041100Z VRB02KT 9999 BKN010 BKN080 24/24 A2986


Station Type Date Time Source
SKLT Decoded METAR 2020/04/04 11:00 UTC NOAA

Leticia / Vasquez Cobo, Colombia (SKLT) 04-10S 069-57W 84M
Apr 04, 2020 - 07:00 AM EDT / 2020.04.04 1100 UTC
Wind: Variable at 2 MPH (2 KT):0
Visibility: greater than 7 mile(s):0
Sky conditions: mostly cloudy
Temperature: 75 F (24 C)
Dew Point: 75 F (24 C)
Relative Humidity: 100%
Pressure (altimeter): 29.86 in. Hg (1011 hPa)
ob: SKLT 041100Z VRB02KT 9999 BKN010 BKN080 24/24 A2986
cycle: 11

Station Type Date Time Source
SKLT TAF 2020/04/04 12:46 UTC NOAA

TAF SKLT 041030Z 0412/0512 00000KT 9999 SCT014 BKN080
TEMPO 0416/0421 4000 TSRA BKN012CB TX32/0418Z TN24/0511Z

Example: see airport list